Station Historical Data
Daily Summary for November 25, 2017 Units:  Metric    English   Both
« Previous Day
Next Day »
Daily Weekly Monthly Yearly Custom
  High: Low: Average:
Temperature: 17.3 °C 4.6 °C 9.9 °C
Dew Point: 8.6 °C 2.7 °C 4.7 °C
Humidity: 93% 40% 73%
Wind Speed: 11.1km/h 0km/h 1.3km/h
Wind Gust: 11.1km/h - -
Wind- - West
Pressure: 1019.5 hPa 1015.5 hPa -
Precipitation: 0 mm    
Historical Graphs
 
 
Tabular Data for November 25, 2017
Time Temperature Dew Point Pressure Wind Wind Speed Wind Gust Humidity Rainfall Rate (Hourly) solar Conditions
00:00 5.5 °C 3.8 °C 1016.5 hPa Calm     89% 0 mm WeatherDisplay:10.37 W/m2 FEW
00:05 5.5 °C 3.8 °C 1016.5 hPa Calm     89% 0 mm WeatherDisplay:10.37 W/m2 CLR
00:10 5.4 °C 3.8 °C 1016.5 hPa Calm     89% 0 mm WeatherDisplay:10.37 W/m2 CLR
00:15 5.4 °C 3.7 °C 1016.5 hPa Calm     89% 0 mm WeatherDisplay:10.37 W/m2 CLR
00:20 5.4 °C 3.7 °C 1016.5 hPa Calm     89% 0 mm WeatherDisplay:10.37 W/m2 CLR
00:25 5.3 °C 3.7 °C 1016.5 hPa Calm     89% 0 mm WeatherDisplay:10.37 W/m2 CLR
00:30 5.3 °C 3.8 °C 1016.5 hPa Calm     90% 0 mm WeatherDisplay:10.37 W/m2 CLR
00:35 5.3 °C 3.8 °C 1016.5 hPa Calm     90% 0 mm WeatherDisplay:10.37 W/m2 CLR
00:40 5.3 °C 3.8 °C 1016.5 hPa Calm     90% 0 mm WeatherDisplay:10.37 W/m2 CLR
00:46 5.3 °C 3.8 °C 1016.5 hPa Calm     90% 0 mm WeatherDisplay:10.37 W/m2 CLR
00:51 5.4 °C 3.9 °C 1016.5 hPa Calm     90% 0 mm WeatherDisplay:10.37 W/m2 CLR
00:56 5.5 °C 4 °C 1016.5 hPa Calm     90% 0 mm WeatherDisplay:10.37 W/m2 CLR
01:01 5.4 °C 3.9 °C 1016.1 hPa Calm     90% 0 mm WeatherDisplay:10.37 W/m2 CLR
01:06 5.4 °C 3.9 °C 1016.1 hPa Calm     90% 0 mm WeatherDisplay:10.37 W/m2 CLR
01:11 5.4 °C 3.9 °C 1016.1 hPa Calm     90% 0 mm WeatherDisplay:10.37 W/m2 CLR
01:16 5.4 °C 3.9 °C 1016.1 hPa Calm     90% 0 mm WeatherDisplay:10.37 W/m2 CLR
01:21 5.3 °C 3.8 °C 1016.1 hPa Calm     90% 0 mm WeatherDisplay:10.37 W/m2 CLR
01:26 5.4 °C 3.9 °C 1016.1 hPa Calm     90% 0 mm WeatherDisplay:10.37 W/m2 CLR
01:31 5.6 °C 4.3 °C 1016.5 hPa Calm     91% 0 mm WeatherDisplay:10.37 W/m2 CLR
01:36 5.6 °C 4.1 °C 1016.5 hPa Calm     90% 0 mm WeatherDisplay:10.37 W/m2 CLR
01:41 5.5 °C 4 °C 1016.1 hPa Calm     90% 0 mm WeatherDisplay:10.37 W/m2 CLR
01:47 5.4 °C 3.9 °C 1016.5 hPa Calm     90% 0 mm WeatherDisplay:10.37 W/m2 CLR
01:52 5.3 °C 3.8 °C 1016.5 hPa Calm     90% 0 mm WeatherDisplay:10.37 W/m2 CLR
01:57 5.3 °C 3.8 °C 1016.5 hPa Calm     90% 0 mm WeatherDisplay:10.37 W/m2 CLR
02:02 5.3 °C 3.8 °C 1016.5 hPa Calm     90% 0 mm WeatherDisplay:10.37 W/m2 CLR
02:07 5.2 °C 3.7 °C 1016.5 hPa Calm     90% 0 mm WeatherDisplay:10.37 W/m2 CLR
02:12 5.2 °C 3.7 °C 1016.5 hPa Calm     90% 0 mm WeatherDisplay:10.37 W/m2 CLR
02:17 5.2 °C 3.7 °C 1016.5 hPa Calm     90% 0 mm WeatherDisplay:10.37 W/m2 CLR
02:22 5.2 °C 3.9 °C 1016.1 hPa Calm     91% 0 mm WeatherDisplay:10.37 W/m2 CLR
02:27 5.3 °C 3.9 °C 1016.1 hPa Calm     91% 0 mm WeatherDisplay:10.37 W/m2 CLR
02:32 5.3 °C 3.9 °C 1016.1 hPa Calm     91% 0 mm WeatherDisplay:10.37 W/m2 CLR
02:37 5.2 °C 3.9 °C 1016.5 hPa Calm     91% 0 mm WeatherDisplay:10.37 W/m2 CLR
02:42 5.2 °C 3.9 °C 1016.1 hPa Calm     91% 0 mm WeatherDisplay:10.37 W/m2 CLR
02:48 5.2 °C 3.9 °C 1016.1 hPa Calm     91% 0 mm WeatherDisplay:10.37 W/m2 CLR
02:53 5.2 °C 3.9 °C 1016.1 hPa Calm     91% 0 mm WeatherDisplay:10.37 W/m2 CLR
02:58 5.2 °C 3.8 °C 1016.1 hPa Calm     91% 0 mm WeatherDisplay:10.37 W/m2 CLR
03:03 5.1 °C 3.8 °C 1016.1 hPa Calm     91% 0 mm WeatherDisplay:10.37 W/m2 CLR
03:08 5.1 °C 3.7 °C 1016.1 hPa Calm     91% 0 mm WeatherDisplay:10.37 W/m2 CLR
03:13 5 °C 3.7 °C 1016.1 hPa Calm     91% 0 mm WeatherDisplay:10.37 W/m2 CLR
03:18 4.9 °C 3.6 °C 1016.1 hPa Calm     91% 0 mm WeatherDisplay:10.37 W/m2 CLR
03:23 4.9 °C 3.6 °C 1016.1 hPa Calm     91% 0 mm WeatherDisplay:10.37 W/m2 CLR
03:28 4.9 °C 3.6 °C 1016.1 hPa Calm     91% 0 mm WeatherDisplay:10.37 W/m2 CLR
03:33 4.9 °C 3.6 °C 1016.1 hPa Calm     91% 0 mm WeatherDisplay:10.37 W/m2 CLR
03:38 4.9 °C 3.6 °C 1016.1 hPa Calm     91% 0 mm WeatherDisplay:10.37 W/m2 CLR
03:43 4.9 °C 3.6 °C 1016.1 hPa Calm     91% 0 mm WeatherDisplay:10.37 W/m2 CLR
03:48 4.9 °C 3.6 °C 1016.1 hPa Calm     91% 0 mm WeatherDisplay:10.37 W/m2 CLR
03:54 4.9 °C 3.6 °C 1015.8 hPa Calm     91% 0 mm WeatherDisplay:10.37 W/m2 CLR
03:59 4.9 °C 3.6 °C 1015.8 hPa Calm     91% 0 mm WeatherDisplay:10.37 W/m2 CLR
04:04 5.1 °C 3.9 °C 1016.1 hPa Calm     92% 0 mm WeatherDisplay:10.37 W/m2 FEW
04:09 5.2 °C 4.1 °C 1016.1 hPa Calm     92% 0 mm WeatherDisplay:10.37 W/m2 FEW
04:14 5.3 °C 4.1 °C 1016.1 hPa Calm     92% 0 mm WeatherDisplay:10.37 W/m2 FEW
04:19 5.4 °C 4.2 °C 1016.1 hPa Calm     92% 0 mm WeatherDisplay:10.37 W/m2 FEW
04:24 5.6 °C 4.4 °C 1016.1 hPa Calm     92% 0 mm WeatherDisplay:10.37 W/m2 FEW
04:30 5.8 °C 4.8 °C 1016.1 hPa Calm     93% 0 mm WeatherDisplay:10.37 W/m2 FEW
04:35 5.9 °C 4.7 °C 1016.1 hPa Calm     92% 0 mm WeatherDisplay:10.37 W/m2 FEW
04:40 6.1 °C 4.8 °C 1016.1 hPa Calm     92% 0 mm WeatherDisplay:10.37 W/m2 FEW
04:45 6.2 °C 4.9 °C 1016.1 hPa Calm     92% 0 mm WeatherDisplay:10.37 W/m2 FEW
04:50 6.3 °C 5.1 °C 1016.1 hPa Calm     92% 0 mm WeatherDisplay:10.37 W/m2 FEW
04:55 6.3 °C 5.1 °C 1016.1 hPa Calm     92% 0 mm WeatherDisplay:10.37 W/m2 FEW
05:00 6.3 °C 5.1 °C 1016.1 hPa Calm     92% 0 mm WeatherDisplay:10.37 W/m2 FEW
05:05 6.3 °C 4.9 °C 1016.1 hPa Calm     91% 0 mm WeatherDisplay:10.37 W/m2 FEW
05:10 6.2 °C 4.9 °C 1016.1 hPa Calm     91% 0 mm WeatherDisplay:10.37 W/m2 FEW
05:15 6.1 °C 4.8 °C 1016.5 hPa Calm     91% 0 mm WeatherDisplay:10.37 W/m2 FEW
05:20 6 °C 4.7 °C 1016.5 hPa Calm     91% 0 mm WeatherDisplay:10.37 W/m2 FEW
05:25 5.8 °C 4.3 °C 1016.5 hPa Calm     90% 0 mm WeatherDisplay:10.37 W/m2 FEW
05:30 5.6 °C 4.1 °C 1016.5 hPa Calm     90% 0 mm WeatherDisplay:10.37 W/m2 FEW
05:35 5.4 °C 3.9 °C 1016.5 hPa Calm     90% 0 mm WeatherDisplay:10.37 W/m2 FEW
05:41 5.2 °C 3.7 °C 1016.5 hPa Calm     90% 0 mm WeatherDisplay:10.37 W/m2 FEW
05:46 5.1 °C 3.6 °C 1016.5 hPa Calm     90% 0 mm WeatherDisplay:10.37 W/m2 FEW
05:51 5 °C 3.5 °C 1016.5 hPa Calm     90% 0 mm WeatherDisplay:10.37 W/m2 FEW
05:56 4.9 °C 3.4 °C 1016.5 hPa Calm     90% 0 mm WeatherDisplay:10.37 W/m2 FEW
06:01 4.8 °C 3.3 °C 1016.5 hPa Calm     90% 0 mm WeatherDisplay:10.37 W/m2 CLR
06:06 4.7 °C 3.4 °C 1016.5 hPa Calm     91% 0 mm WeatherDisplay:10.37 W/m2 CLR
06:11 4.7 °C 3.4 °C 1016.5 hPa Calm     91% 0 mm WeatherDisplay:10.37 W/m2 CLR
06:16 4.7 °C 3.4 °C 1016.5 hPa Calm     91% 0 mm WeatherDisplay:10.37 W/m2 CLR
06:21 4.7 °C 3.4 °C 1016.5 hPa Calm     91% 0 mm WeatherDisplay:10.37 W/m2 CLR
06:26 4.7 °C 3.4 °C 1016.8 hPa Calm     91% 0 mm WeatherDisplay:10.37 W/m2 CLR
06:31 4.7 °C 3.4 °C 1016.8 hPa Calm     91% 0 mm WeatherDisplay:10.37 W/m2 CLR
06:36 4.7 °C 3.4 °C 1016.8 hPa Calm     91% 0 mm WeatherDisplay:10.37 W/m2 CLR
06:42 4.7 °C 3.4 °C 1016.8 hPa Calm     91% 0 mm WeatherDisplay:10.37 W/m2 CLR
06:47 4.8 °C 3.4 °C 1016.8 hPa Calm     91% 0 mm WeatherDisplay:10.37 W/m2 CLR
06:52 4.7 °C 3.4 °C 1016.8 hPa Calm     91% 0 mm WeatherDisplay:10.37 W/m2 CLR
06:57 4.7 °C 3.3 °C 1016.8 hPa Calm     91% 0 mm WeatherDisplay:10.37 W/m2 CLR
07:02 4.6 °C 3.3 °C 1016.8 hPa Calm     91% 0 mm WeatherDisplay:10.37 W/m2 BKN
07:07 4.6 °C 3.3 °C 1016.8 hPa Calm     91% 0 mm WeatherDisplay:10.37 W/m2 BKN
07:12 4.6 °C 3.3 °C 1016.5 hPa Calm     91% 0 mm WeatherDisplay:10.37 W/m2 BKN
07:17 4.6 °C 3.3 °C 1016.8 hPa Calm     91% 0 mm WeatherDisplay:10.37 W/m2 BKN
07:22 4.7 °C 3.5 °C 1016.8 hPa Calm     92% 0 mm WeatherDisplay:10.37 W/m2 BKN
07:27 4.7 °C 3.5 °C 1016.8 hPa Calm     92% 0 mm WeatherDisplay:10.37 W/m2 BKN
07:32 4.7 °C 3.3 °C 1016.5 hPa Calm     91% 0 mm WeatherDisplay:10.37 W/m2 BKN
07:37 4.7 °C 3.3 °C 1016.5 hPa Calm     91% 0 mm WeatherDisplay:10.37 W/m2 BKN
07:42 4.7 °C 3.5 °C 1016.8 hPa Calm     92% 0 mm WeatherDisplay:10.37 W/m2 BKN
07:48 4.8 °C 3.6 °C 1016.8 hPa Calm     92% 0 mm WeatherDisplay:10.37 W/m2 BKN
07:53 4.8 °C 3.7 °C 1016.8 hPa Calm     92% 0 mm WeatherDisplay:10.37 W/m2 BKN
07:58 4.9 °C 3.8 °C 1016.8 hPa Calm     92% 0 mm WeatherDisplay:10.37 W/m2 BKN
08:03 5 °C 3.8 °C 1016.8 hPa Calm     92% 0 mm WeatherDisplay:10.37 W/m2 BKN
08:08 5.1 °C 3.9 °C 1016.8 hPa Calm     92% 0 mm WeatherDisplay:10.37 W/m2 BKN
08:13 5.3 °C 4.1 °C 1017.2 hPa Calm     92% 0 mm WeatherDisplay:10.37 W/m2 BKN
08:18 5.5 °C 4.3 °C 1017.2 hPa Calm     92% 0 mm WeatherDisplay:10.37 W/m2 BKN
08:23 5.7 °C 4.4 °C 1017.2 hPa Calm     92% 0 mm WeatherDisplay:10.37 W/m2 BKN
08:28 6 °C 4.9 °C 1017.2 hPa Calm     93% 0 mm WeatherDisplay:10.37 W/m2 BKN
08:33 6.3 °C 5.3 °C 1017.2 hPa Calm     93% 0 mm WeatherDisplay:10.37 W/m2 BKN
08:38 6.7 °C 5.6 °C 1017.2 hPa Calm     93% 0 mm WeatherDisplay:10.37 W/m2 BKN
08:43 6.9 °C 5.9 °C 1017.2 hPa Calm     93% 0 mm WeatherDisplay:10.37 W/m2 BKN
08:49 7.1 °C 6 °C 1017.2 hPa Calm     93% 0 mm WeatherDisplay:10.37 W/m2 BKN
08:54 7.3 °C 6.2 °C 1017.2 hPa Calm     93% 0 mm WeatherDisplay:10.37 W/m2 BKN
08:59 7.4 °C 6.4 °C 1017.2 hPa Calm     93% 0 mm WeatherDisplay:10.37 W/m2 BKN
09:04 7.7 °C 6.7 °C 1017.2 hPa Calm     93% 0 mm WeatherDisplay:10.37 W/m2 OVC
09:09 7.9 °C 6.7 °C 1017.2 hPa Calm     92% 0 mm WeatherDisplay:10.37 W/m2 OVC
09:10 7.9 °C 6.7 °C 1017.2 hPa Calm     92% 0 mm WeatherDisplay:10.37 W/m2 OVC
09:15 8.1 °C 6.9 °C 1017.2 hPa Calm     92% 0 mm WeatherDisplay:10.37 W/m2 OVC
09:20 8.3 °C 7.1 °C 1017.2 hPa Calm     92% 0 mm WeatherDisplay:10.37 W/m2 OVC
09:25 8.6 °C 7.3 °C 1017.2 hPa Calm     92% 0 mm WeatherDisplay:10.37 W/m2 OVC
09:30 8.8 °C 7.4 °C 1017.2 hPa Calm     91% 0 mm WeatherDisplay:10.37 W/m2 OVC
09:35 8.9 °C 7.6 °C 1017.2 hPa Calm     91% 0 mm WeatherDisplay:10.37 W/m2 OVC
09:40 9.2 °C 7.6 °C 1017.2 hPa Calm     90% 0 mm WeatherDisplay:10.37 W/m2 OVC
09:45 9.4 °C 7.8 °C 1017.2 hPa Calm     90% 0 mm WeatherDisplay:10.37 W/m2 OVC
09:50 9.7 °C 8.2 °C 1017.5 hPa Calm     90% 0 mm WeatherDisplay:10.37 W/m2 OVC
09:56 10.3 °C 8.6 °C 1017.5 hPa Calm     89% 0 mm WeatherDisplay:10.37 W/m2 OVC
10:01 10.8 °C 8.1 °C 1017.5 hPa NNW 1.9 km/h 1.9 km/h 83% 0 mm WeatherDisplay:10.37 W/m2 OVC
10:06 11.4 °C 7.9 °C 1017.5 hPa ENE 1.9 km/h   79% 0 mm WeatherDisplay:10.37 W/m2 BKN
10:11 11.9 °C 7.8 °C 1017.5 hPa SE 3.7 km/h 3.7 km/h 76% 0 mm WeatherDisplay:10.37 W/m2 BKN
10:16 12.3 °C 7.8 °C 1017.5 hPa WSW 3.7 km/h   74% 0 mm WeatherDisplay:10.37 W/m2 BKN
10:21 12.7 °C 7.7 °C 1017.5 hPa West 3.7 km/h 3.7 km/h 72% 0 mm WeatherDisplay:10.37 W/m2 BKN
10:26 13.1 °C 7.9 °C 1017.5 hPa West 5.6 km/h 5.6 km/h 71% 0 mm WeatherDisplay:10.37 W/m2 BKN
10:31 13.3 °C 7.5 °C 1017.5 hPa West 5.6 km/h 5.6 km/h 68% 0 mm WeatherDisplay:10.37 W/m2 BKN
10:36 13.4 °C 6.5 °C 1017.5 hPa West 5.6 km/h 5.6 km/h 63% 0 mm WeatherDisplay:10.37 W/m2 BKN
10:41 13.4 °C 6.8 °C 1017.5 hPa West 3.7 km/h   64% 0 mm WeatherDisplay:10.37 W/m2 BKN
10:49 13.6 °C 6.7 °C 1017.5 hPa WNW 1.9 km/h   63% 0 mm WeatherDisplay:10.37 W/m2 BKN
10:54 13.8 °C 6.2 °C 1017.5 hPa WSW 3.7 km/h   60% 0 mm WeatherDisplay:10.37 W/m2 BKN
10:59 14 °C 6.1 °C 1017.2 hPa West 3.7 km/h   59% 0 mm WeatherDisplay:10.37 W/m2 BKN
11:05 14.2 °C 5.2 °C 1017.5 hPa West 1.6 km/h 4.8 km/h 55% 0 mm WeatherDisplay:10.37 W/m2 BKN
11:10 14.3 °C 4.8 °C 1017.2 hPa Calm   4.8 km/h 53% 0 mm WeatherDisplay:10.37 W/m2 BKN
11:15 14.4 °C 4.7 °C 1017.5 hPa North 5.6 km/h   52% 0 mm WeatherDisplay:10.37 W/m2 BKN
11:20 14.4 °C 5 °C 1017.2 hPa WSW 7.4 km/h 7.4 km/h 53% 0 mm WeatherDisplay:10.37 W/m2 BKN
11:25 14.6 °C 4.2 °C 1017.2 hPa WNW 7.4 km/h 7.4 km/h 50% 0 mm WeatherDisplay:10.37 W/m2 BKN
11:30 14.5 °C 3.9 °C 1017.2 hPa West 3.7 km/h 3.7 km/h 49% 0 mm WeatherDisplay:10.37 W/m2 BKN
11:35 14.4 °C 3.5 °C 1017.2 hPa WNW 7.4 km/h 7.4 km/h 48% 0 mm WeatherDisplay:10.37 W/m2 BKN
11:40 14.4 °C 3.8 °C 1017.2 hPa NW 7.4 km/h 7.4 km/h 49% 0 mm WeatherDisplay:10.37 W/m2 BKN
11:45 14.6 °C 2.7 °C 1017.2 hPa NW 5.6 km/h   45% 0 mm WeatherDisplay:10.37 W/m2 BKN
11:50 14.9 °C 3.1 °C 1017.2 hPa West 9.3 km/h 9.3 km/h 45% 0 mm WeatherDisplay:10.37 W/m2 BKN
11:56 15.2 °C 3.9 °C 1017.2 hPa WSW 9.3 km/h 9.3 km/h 47% 0 mm WeatherDisplay:10.37 W/m2 BKN
12:00 15.5 °C 4.2 °C 1016.8 hPa WSW 9.3 km/h 9.3 km/h 47% 0 mm WeatherDisplay:10.37 W/m2 BKN
12:05 15.7 °C 3.5 °C 1016.8 hPa WSW 5.6 km/h 5.6 km/h 44% 0 mm WeatherDisplay:10.37 W/m2 BKN
12:10 15.7 °C 3.8 °C 1016.8 hPa SW 5.6 km/h 5.6 km/h 45% 0 mm WeatherDisplay:10.37 W/m2 BKN
12:16 15.8 °C 3.6 °C 1016.5 hPa WNW 5.6 km/h 5.6 km/h 44% 0 mm WeatherDisplay:10.37 W/m2 BKN
12:21 15.9 °C 3.4 °C 1016.5 hPa WSW 5.6 km/h 5.6 km/h 43% 0 mm WeatherDisplay:10.37 W/m2 BKN
12:26 16.1 °C 3.8 °C 1016.5 hPa SSW 9.3 km/h 9.3 km/h 44% 0 mm WeatherDisplay:10.37 W/m2 BKN
12:31 16.2 °C 3.6 °C 1016.1 hPa West 9.3 km/h 9.3 km/h 43% 0 mm WeatherDisplay:10.37 W/m2 BKN
12:36 16.3 °C 4 °C 1016.1 hPa SSW 9.3 km/h 9.3 km/h 44% 0 mm WeatherDisplay:10.37 W/m2 BKN
12:41 16.3 °C 3.7 °C 1016.1 hPa WSW 9.3 km/h 9.3 km/h 43% 0 mm WeatherDisplay:10.37 W/m2 BKN
12:46 16.6 °C 4.6 °C 1016.1 hPa West 9.3 km/h 9.3 km/h 45% 0 mm WeatherDisplay:10.37 W/m2 BKN
12:51 16.9 °C 4.6 °C 1015.8 hPa WSW 7.4 km/h 7.4 km/h 44% 0 mm WeatherDisplay:10.37 W/m2 BKN
12:56 17.1 °C 3.4 °C 1015.5 hPa West 3.7 km/h   40% 0 mm WeatherDisplay:10.37 W/m2 BKN
13:01 17.1 °C 3.7 °C 1015.5 hPa North 3.7 km/h   41% 0 mm WeatherDisplay:10.37 W/m2 BKN
13:06 17.1 °C 3.7 °C 1015.5 hPa NW 3.7 km/h   41% 0 mm WeatherDisplay:10.37 W/m2 BKN
13:11 17.1 °C 4.4 °C 1015.5 hPa WSW 3.7 km/h 3.7 km/h 43% 0 mm WeatherDisplay:10.37 W/m2 BKN
13:16 17 °C 4 °C 1015.5 hPa WNW 3.7 km/h 3.7 km/h 42% 0 mm WeatherDisplay:10.37 W/m2 BKN
13:22 16.9 °C 4.2 °C 1015.5 hPa WNW 3.7 km/h 3.7 km/h 43% 0 mm WeatherDisplay:10.37 W/m2 BKN
13:27 16.8 °C 4.8 °C 1015.5 hPa WNW 3.7 km/h   45% 0 mm WeatherDisplay:10.37 W/m2 BKN
13:32 16.8 °C 4.8 °C 1015.5 hPa WNW 1.9 km/h   45% 0 mm WeatherDisplay:10.37 W/m2 BKN
13:37 16.7 °C 4.7 °C 1015.5 hPa WNW 1.9 km/h   45% 0 mm WeatherDisplay:10.37 W/m2 BKN
13:42 16.8 °C 4.4 °C 1015.5 hPa WNW 1.9 km/h   44% 0 mm WeatherDisplay:10.37 W/m2 BKN
13:52 16.9 °C 4.6 °C 1015.5 hPa NW 1.9 km/h 1.9 km/h 44% 0 mm WeatherDisplay:10.37 W/m2 BKN
13:57 17.1 °C 4.4 °C 1015.5 hPa NW 7.4 km/h   43% 0 mm WeatherDisplay:10.37 W/m2 BKN
14:02 17.1 °C 4.1 °C 1015.5 hPa West 7.4 km/h 7.4 km/h 42% 0 mm WeatherDisplay:10.37 W/m2 BKN
14:07 17.2 °C 4.4 °C 1015.5 hPa WSW 3.7 km/h 3.7 km/h 43% 0 mm WeatherDisplay:10.37 W/m2 BKN
14:12 17.2 °C 4.5 °C 1015.5 hPa West 1.9 km/h 1.9 km/h 43% 0 mm WeatherDisplay:10.37 W/m2 BKN
14:17 17.3 °C 4.3 °C 1015.5 hPa WNW 5.6 km/h 5.6 km/h 42% 0 mm WeatherDisplay:10.37 W/m2 BKN
14:22 17.3 °C 4.3 °C 1015.8 hPa NW 11.1 km/h 11.1 km/h 42% 0 mm WeatherDisplay:10.37 W/m2 BKN
14:28 17.2 °C 4.8 °C 1015.5 hPa NNW 11.1 km/h 11.1 km/h 44% 0 mm WeatherDisplay:10.37 W/m2 BKN
14:33 16.9 °C 4.6 °C 1015.5 hPa ENE 5.6 km/h 5.6 km/h 44% 0 mm WeatherDisplay:10.37 W/m2 BKN
14:38 16.8 °C 4.5 °C 1015.5 hPa NNW 5.6 km/h   44% 0 mm WeatherDisplay:10.37 W/m2 BKN
14:43 16.8 °C 4.8 °C 1015.5 hPa WNW 3.7 km/h   45% 0 mm WeatherDisplay:10.37 W/m2 BKN
14:48 16.8 °C 5.1 °C 1015.5 hPa WSW 3.7 km/h   46% 0 mm WeatherDisplay:10.37 W/m2 BKN
14:53 16.8 °C 5.1 °C 1015.5 hPa WSW 3.7 km/h 3.7 km/h 46% 0 mm WeatherDisplay:10.37 W/m2 BKN
14:58 16.8 °C 4.4 °C 1015.5 hPa SSE 3.7 km/h   44% 0 mm WeatherDisplay:10.37 W/m2 BKN
15:03 16.8 °C 4.8 °C 1015.5 hPa NNE 3.7 km/h   45% 0 mm WeatherDisplay:10.37 W/m2 OVC
15:08 16.7 °C 5.1 °C 1015.5 hPa NW 3.7 km/h 3.7 km/h 46% 0 mm WeatherDisplay:10.37 W/m2 OVC
15:14 16.7 °C 4.7 °C 1015.5 hPa NW 3.7 km/h   45% 0 mm WeatherDisplay:10.37 W/m2 OVC
15:19 16.8 °C 5.1 °C 1015.5 hPa NNW 3.7 km/h 3.7 km/h 46% 0 mm WeatherDisplay:10.37 W/m2 OVC
15:24 16.9 °C 4.6 °C 1015.5 hPa NNW 1.9 km/h   44% 0 mm WeatherDisplay:10.37 W/m2 OVC
15:29 16.9 °C 4.3 °C 1015.5 hPa NNW 1.9 km/h 1.9 km/h 43% 0 mm WeatherDisplay:10.37 W/m2 OVC
15:33 16.8 °C 4.8 °C 1015.5 hPa NW 1.9 km/h   45% 0 mm WeatherDisplay:10.37 W/m2 OVC
15:38 16.5 °C 4.2 °C 1015.5 hPa WNW 1.9 km/h 1.9 km/h 44% 0 mm WeatherDisplay:10.37 W/m2 OVC
15:43 16.3 °C 4.9 °C 1015.5 hPa NW 1.9 km/h   47% 0 mm WeatherDisplay:10.37 W/m2 OVC
15:49 16.1 °C 5.1 °C 1015.5 hPa NW 1.9 km/h   48% 0 mm WeatherDisplay:10.37 W/m2 OVC
15:54 15.9 °C 5.5 °C 1015.5 hPa Calm     50% 0 mm WeatherDisplay:10.37 W/m2 OVC
15:59 15.8 °C 5.7 °C 1015.5 hPa Calm     51% 0 mm WeatherDisplay:10.37 W/m2 OVC
16:04 15.8 °C 4.5 °C 1015.5 hPa Calm     47% 0 mm WeatherDisplay:10.37 W/m2 BKN
16:09 15.7 °C 5.3 °C 1015.5 hPa Calm     50% 0 mm WeatherDisplay:10.37 W/m2 BKN
16:14 15.6 °C 6.1 °C 1015.5 hPa Calm     53% 0 mm WeatherDisplay:10.37 W/m2 BKN
16:19 15.4 °C 5.6 °C 1015.8 hPa Calm     52% 0 mm WeatherDisplay:10.37 W/m2 BKN
16:24 15.3 °C 5.8 °C 1015.8 hPa Calm     53% 0 mm WeatherDisplay:10.37 W/m2 BKN
16:29 15.2 °C 5.4 °C 1015.8 hPa Calm     52% 0 mm WeatherDisplay:10.37 W/m2 BKN
16:39 15.2 °C 5.4 °C 1015.8 hPa WNW 1.9 km/h   52% 0 mm WeatherDisplay:10.37 W/m2 BKN
16:44 15.2 °C 4.8 °C 1015.8 hPa West 1.9 km/h   50% 0 mm WeatherDisplay:10.37 W/m2 BKN
16:49 15.1 °C 5.3 °C 1015.8 hPa Calm     52% 0 mm WeatherDisplay:10.37 W/m2 BKN
16:55 15 °C 5.5 °C 1015.8 hPa Calm     53% 0 mm WeatherDisplay:10.37 W/m2 BKN
17:00 14.9 °C 5.4 °C 1016.1 hPa SW 3.7 km/h   53% 0 mm WeatherDisplay:10.37 W/m2 BKN
17:05 14.7 °C 5.2 °C 1016.1 hPa ESE 3.7 km/h   53% 0 mm WeatherDisplay:10.37 W/m2 BKN
17:10 14.6 °C 5.3 °C 1016.1 hPa ESE 1.9 km/h   54% 0 mm WeatherDisplay:10.37 W/m2 BKN
17:15 14.4 °C 5.2 °C 1016.1 hPa SSE 1.9 km/h   54% 0 mm WeatherDisplay:10.37 W/m2 BKN
17:20 14.2 °C 5.6 °C 1016.1 hPa South 1.9 km/h   56% 0 mm WeatherDisplay:10.37 W/m2 BKN
17:25 13.9 °C 5.3 °C 1016.5 hPa West 1.9 km/h   56% 0 mm WeatherDisplay:10.37 W/m2 BKN
17:30 13.8 °C 4.7 °C 1016.5 hPa West 1.9 km/h   54% 0 mm WeatherDisplay:10.37 W/m2 BKN
17:35 13.7 °C 5.1 °C 1016.5 hPa Calm     56% 0 mm WeatherDisplay:10.37 W/m2 BKN
17:40 13.5 °C 5.2 °C 1016.8 hPa Calm     57% 0 mm WeatherDisplay:10.37 W/m2 BKN
17:45 13.3 °C 5.2 °C 1016.8 hPa Calm     58% 0 mm WeatherDisplay:10.37 W/m2 BKN
17:50 12.9 °C 5.1 °C 1016.8 hPa Calm     59% 0 mm WeatherDisplay:10.37 W/m2 BKN
17:55 12.7 °C 5.4 °C 1016.8 hPa Calm     61% 0 mm WeatherDisplay:10.37 W/m2 BKN
18:01 12.5 °C 5.2 °C 1017.2 hPa Calm     61% 0 mm WeatherDisplay:10.37 W/m2 BKN
18:06 12.3 °C 5.4 °C 1017.2 hPa Calm     63% 0 mm WeatherDisplay:10.37 W/m2 BKN
18:11 12.1 °C 5.3 °C 1017.2 hPa Calm     63% 0 mm WeatherDisplay:10.37 W/m2 BKN
18:16 12.1 °C 5.2 °C 1017.2 hPa Calm     63% 0 mm WeatherDisplay:10.37 W/m2 BKN
18:21 12 °C 5.2 °C 1017.2 hPa Calm     63% 0 mm WeatherDisplay:10.37 W/m2 BKN
18:26 11.9 °C 5.1 °C 1017.2 hPa Calm     63% 0 mm WeatherDisplay:10.37 W/m2 BKN
18:31 11.8 °C 5.2 °C 1017.2 hPa Calm     64% 0 mm WeatherDisplay:10.37 W/m2 BKN
18:36 11.7 °C 5.1 °C 1017.2 hPa Calm     64% 0 mm WeatherDisplay:10.37 W/m2 BKN
18:41 11.6 °C 5 °C 1017.2 hPa Calm     64% 0 mm WeatherDisplay:10.37 W/m2 BKN
18:46 11.6 °C 5.2 °C 1017.5 hPa Calm     65% 0 mm WeatherDisplay:10.37 W/m2 BKN
18:51 11.4 °C 5.1 °C 1017.5 hPa Calm     65% 0 mm WeatherDisplay:10.37 W/m2 BKN
18:56 11.3 °C 4.9 °C 1017.5 hPa Calm     65% 0 mm WeatherDisplay:10.37 W/m2 BKN
19:02 11.2 °C 5.3 °C 1017.5 hPa Calm     67% 0 mm WeatherDisplay:10.37 W/m2 FEW
19:07 11.1 °C 5.2 °C 1017.5 hPa Calm     67% 0 mm WeatherDisplay:10.37 W/m2 FEW
19:12 11.1 °C 5.2 °C 1017.5 hPa Calm     67% 0 mm WeatherDisplay:10.37 W/m2 FEW
19:17 11 °C 5.1 °C 1017.5 hPa Calm     67% 0 mm WeatherDisplay:10.37 W/m2 FEW
19:22 10.9 °C 5 °C 1017.5 hPa Calm     67% 0 mm WeatherDisplay:10.37 W/m2 FEW
19:27 10.8 °C 4.9 °C 1017.8 hPa Calm     67% 0 mm WeatherDisplay:10.37 W/m2 FEW
19:32 10.7 °C 5.1 °C 1017.8 hPa Calm     68% 0 mm WeatherDisplay:10.37 W/m2 FEW
19:37 10.6 °C 5.2 °C 1017.8 hPa Calm     69% 0 mm WeatherDisplay:10.37 W/m2 FEW
19:42 10.5 °C 5.1 °C 1017.8 hPa Calm     69% 0 mm WeatherDisplay:10.37 W/m2 FEW
19:47 10.4 °C 4.9 °C 1017.8 hPa Calm     69% 0 mm WeatherDisplay:10.37 W/m2 FEW
19:52 10.3 °C 5.1 °C 1017.8 hPa Calm     70% 0 mm WeatherDisplay:10.37 W/m2 FEW
19:57 10.2 °C 5 °C 1017.8 hPa Calm     70% 0 mm WeatherDisplay:10.37 W/m2 FEW
20:02 10.1 °C 4.9 °C 1017.8 hPa Calm     70% 0 mm WeatherDisplay:10.37 W/m2 FEW
20:08 10.1 °C 5.1 °C 1017.8 hPa Calm     71% 0 mm WeatherDisplay:10.37 W/m2 FEW
20:13 9.9 °C 4.9 °C 1018.2 hPa Calm     71% 0 mm WeatherDisplay:10.37 W/m2 FEW
20:18 9.9 °C 4.9 °C 1018.2 hPa Calm     71% 0 mm WeatherDisplay:10.37 W/m2 FEW
20:23 9.8 °C 5 °C 1018.2 hPa Calm     72% 0 mm WeatherDisplay:10.37 W/m2 FEW
20:28 9.8 °C 5.2 °C 1018.2 hPa Calm     73% 0 mm WeatherDisplay:10.37 W/m2 FEW
20:33 9.7 °C 5.1 °C 1018.5 hPa Calm     73% 0 mm WeatherDisplay:10.37 W/m2 FEW
20:38 9.7 °C 5.1 °C 1018.5 hPa Calm     73% 0 mm WeatherDisplay:10.37 W/m2 FEW
20:43 9.6 °C 4.9 °C 1018.5 hPa Calm     73% 0 mm WeatherDisplay:10.37 W/m2 FEW
20:48 9.5 °C 4.9 °C 1018.5 hPa Calm     73% 0 mm WeatherDisplay:10.37 W/m2 FEW
20:53 9.5 °C 5.1 °C 1018.5 hPa Calm     74% 0 mm WeatherDisplay:10.37 W/m2 FEW
20:58 9.4 °C 5.1 °C 1018.2 hPa Calm     74% 0 mm WeatherDisplay:10.37 W/m2 FEW
21:03 9.3 °C 4.9 °C 1018.5 hPa Calm     74% 0 mm WeatherDisplay:10.37 W/m2 FEW
21:08 9.2 °C 5 °C 1018.5 hPa Calm     75% 0 mm WeatherDisplay:10.37 W/m2 FEW
21:14 9.2 °C 4.9 °C 1018.5 hPa Calm     75% 0 mm WeatherDisplay:10.37 W/m2 CLR
21:19 9.1 °C 4.9 °C 1018.5 hPa Calm     75% 0 mm WeatherDisplay:10.37 W/m2 CLR
21:24 9.1 °C 5.1 °C 1018.5 hPa Calm     76% 0 mm WeatherDisplay:10.37 W/m2 CLR
21:29 8.9 °C 5.1 °C 1018.5 hPa Calm     77% 0 mm WeatherDisplay:10.37 W/m2 CLR
21:34 8.8 °C 5 °C 1018.5 hPa Calm     77% 0 mm WeatherDisplay:10.37 W/m2 CLR
21:39 8.8 °C 5 °C 1018.5 hPa Calm     77% 0 mm WeatherDisplay:10.37 W/m2 CLR
21:44 8.8 °C 5.2 °C 1018.5 hPa Calm     78% 0 mm WeatherDisplay:10.37 W/m2 CLR
21:49 8.7 °C 5.1 °C 1018.5 hPa Calm     78% 0 mm WeatherDisplay:10.37 W/m2 CLR
21:54 8.8 °C 5.2 °C 1018.5 hPa Calm     78% 0 mm WeatherDisplay:10.37 W/m2 CLR
21:59 8.8 °C 5.2 °C 1018.5 hPa Calm     78% 0 mm WeatherDisplay:10.37 W/m2 CLR
22:04 8.8 °C 5.2 °C 1018.5 hPa WNW 1.9 km/h   78% 0 mm WeatherDisplay:10.37 W/m2 CLR
22:10 8.8 °C 5.2 °C 1018.5 hPa WNW 1.9 km/h   78% 0 mm WeatherDisplay:10.37 W/m2 CLR
22:15 8.8 °C 5.2 °C 1018.8 hPa West 1.9 km/h   78% 0 mm WeatherDisplay:10.37 W/m2 CLR
22:20 8.7 °C 5.3 °C 1018.8 hPa WNW 1.9 km/h   79% 0 mm WeatherDisplay:10.37 W/m2 CLR
22:25 8.7 °C 5.3 °C 1018.8 hPa Calm     79% 0 mm WeatherDisplay:10.37 W/m2 CLR
22:30 8.7 °C 5.3 °C 1018.8 hPa Calm     79% 0 mm WeatherDisplay:10.37 W/m2 CLR
22:35 8.7 °C 5.2 °C 1018.8 hPa Calm     79% 0 mm WeatherDisplay:10.37 W/m2 CLR
22:40 8.7 °C 5.2 °C 1018.8 hPa Calm     79% 0 mm WeatherDisplay:10.37 W/m2 CLR
22:45 8.6 °C 5.2 °C 1018.8 hPa Calm     79% 0 mm WeatherDisplay:10.37 W/m2 CLR
22:50 8.5 °C 5.2 °C 1019.2 hPa Calm     80% 0 mm WeatherDisplay:10.37 W/m2 CLR
22:55 8.5 °C 5.2 °C 1019.2 hPa NW 1.9 km/h 1.9 km/h 80% 0 mm WeatherDisplay:10.37 W/m2 CLR
23:01 8.5 °C 5.2 °C 1019.2 hPa WNW 1.9 km/h   80% 0 mm WeatherDisplay:10.37 W/m2 CLR
23:06 8.4 °C 5.2 °C 1019.2 hPa WNW 1.9 km/h   80% 0 mm WeatherDisplay:10.37 W/m2 CLR
23:11 8.4 °C 5.2 °C 1019.2 hPa Calm     80% 0 mm WeatherDisplay:10.37 W/m2 CLR
23:16 8.4 °C 5.1 °C 1019.5 hPa Calm     80% 0 mm WeatherDisplay:10.37 W/m2 CLR
23:21 8.3 °C 5.3 °C 1019.5 hPa WNW 1.9 km/h   81% 0 mm WeatherDisplay:10.37 W/m2 CLR
23:26 8.3 °C 5.2 °C 1019.5 hPa WNW 1.9 km/h   81% 0 mm WeatherDisplay:10.37 W/m2 CLR
23:31 8.2 °C 5.1 °C 1019.5 hPa Calm     81% 0 mm WeatherDisplay:10.37 W/m2 CLR
23:36 8.1 °C 5 °C 1019.5 hPa Calm     81% 0 mm WeatherDisplay:10.37 W/m2 CLR
23:41 8.1 °C 5 °C 1019.5 hPa Calm     81% 0 mm WeatherDisplay:10.37 W/m2 CLR
23:46 8.1 °C 5.1 °C 1019.5 hPa WNW 1.9 km/h   81% 0 mm WeatherDisplay:10.37 W/m2 CLR
23:51 8.1 °C 5.1 °C 1019.5 hPa West 1.9 km/h   81% 0 mm WeatherDisplay:10.37 W/m2 CLR
23:56 8.1 °C 5 °C 1019.5 hPa West 1.9 km/h   81% 0 mm WeatherDisplay:10.37 W/m2 CLR
Piedmont Bend
Compliments of Weather Underground - 4 mb